Main page
METAR-TAF:

METAR-TAF

Airports :

Lac qui Parle County Airport

Madison, Minnesota, United States

latitude: 44-59-10N, longitude: 096-10-40W, elevation: 1082 ft

Current weather observation

The report was made 28 minutes ago, at 21:36 UTC
Wind 9 mph from the South/Southwest
Temperature 23°F
Humidity 68%
Pressure 30.56 in. Hg
Visibility: 10 miles
Clear sky

METAR: KDXX 202136Z AUTO 20008KT 10SM CLR M05/M10 A3056 RMK AO2

Time: 16:04 (22:04 UTC)


TAF: missing

Weather observations and forecasts of more than 4000 airports (METAR and TAF reports).

The available stations are represented by yellow and red dots on the map.

Hover mouse over dot to see the name of the station.

Then click to see weather observations and forecasts.

To change the map : click on the green buttons with a black cross to zoom in, on the green button with a dash to zoom out, or on the green arrows for adjacent maps.


METAR-TAF: